createdAt,value
2023-05-25T05:01:03.051Z,63.64
2023-05-25T05:03:30.975Z,63.75
2023-05-25T05:05:58.154Z,63.92
2023-05-25T05:08:28.902Z,63.09
2023-05-25T05:10:56.023Z,62.02
2023-05-25T05:13:24.126Z,62.79
2023-05-25T05:15:51.593Z,62.69
2023-05-25T05:18:18.679Z,62.15
2023-05-25T05:20:46.286Z,60.89
2023-05-25T05:23:13.885Z,61.19
2023-05-25T05:25:41.205Z,60.66
2023-05-25T05:28:10.911Z,60.90
2023-05-25T05:30:41.070Z,60.17
2023-05-25T05:33:08.189Z,60.13
2023-05-25T05:35:44.575Z,60.43
2023-05-25T05:38:15.711Z,59.92
2023-05-25T05:40:42.824Z,59.20
2023-05-25T05:43:14.685Z,59.68
2023-05-25T05:45:41.907Z,59.10
2023-05-25T05:48:11.946Z,58.93
2023-05-25T05:50:41.997Z,58.62
2023-05-25T05:53:11.134Z,58.72
2023-05-25T05:55:38.349Z,57.92
2023-05-25T05:58:05.607Z,58.85
2023-05-25T06:00:52.606Z,58.34
2023-05-25T06:03:41.079Z,58.06
2023-05-25T06:06:28.123Z,58.70
2023-05-25T06:09:16.377Z,57.81
2023-05-25T06:12:03.557Z,57.55
2023-05-25T06:14:51.212Z,57.76
2023-05-25T06:17:41.213Z,58.16
2023-05-25T06:20:31.044Z,57.58
2023-05-25T06:23:18.081Z,58.03
2023-05-25T06:26:05.818Z,57.68
2023-05-25T06:28:52.908Z,56.78
2023-05-25T06:31:40.101Z,56.80
2023-05-25T06:34:27.359Z,56.28
2023-05-25T06:37:14.672Z,56.62
2023-05-25T06:40:02.134Z,56.89
2023-05-25T06:42:50.169Z,56.21
2023-05-25T06:45:57.740Z,55.89
2023-05-25T06:48:45.457Z,56.63
2023-05-25T06:51:32.545Z,56.25
2023-05-25T06:54:20.083Z,56.00
2023-05-25T06:57:07.132Z,55.94
2023-05-25T06:59:54.338Z,56.05
2023-05-25T07:02:41.391Z,55.13
2023-05-25T07:05:29.184Z,54.62
2023-05-25T07:08:16.397Z,54.93
2023-05-25T07:11:03.662Z,54.54
2023-05-25T07:13:50.646Z,54.74
2023-05-25T07:16:37.784Z,55.16
2023-05-25T07:19:24.860Z,54.80
2023-05-25T07:22:12.075Z,54.98
2023-05-25T07:24:59.168Z,54.78
2023-05-25T07:27:46.440Z,54.53
2023-05-25T07:30:34.006Z,53.61
2023-05-25T07:33:21.185Z,53.08
2023-05-25T07:36:08.514Z,54.03
2023-05-25T07:38:55.675Z,54.07
2023-05-25T07:41:42.711Z,52.92
2023-05-25T07:44:29.828Z,52.94
2023-05-25T07:47:16.887Z,52.23
2023-05-25T07:50:04.006Z,53.15
2023-05-25T07:52:51.240Z,52.52
2023-05-25T07:55:40.269Z,52.82
2023-05-25T07:58:28.077Z,52.11
2023-05-25T08:01:15.669Z,51.59
2023-05-25T08:04:02.957Z,50.49
2023-05-25T08:06:50.059Z,51.42
2023-05-25T08:09:37.199Z,50.52
2023-05-25T08:12:37.896Z,49.97
2023-05-25T08:15:30.047Z,50.96
2023-05-25T08:18:17.104Z,51.13
2023-05-25T08:21:04.350Z,50.03
2023-05-25T08:23:51.695Z,49.17
2023-05-25T08:26:53.223Z,49.90
2023-05-25T08:29:41.501Z,49.26
2023-05-25T08:32:28.641Z,49.89
2023-05-25T08:35:16.108Z,48.73
2023-05-25T08:38:03.775Z,49.47
2023-05-25T08:40:51.396Z,49.34
2023-05-25T08:43:38.533Z,48.76
2023-05-25T08:46:27.490Z,48.63
2023-05-25T08:49:22.857Z,48.95
2023-05-25T08:52:12.228Z,48.35
2023-05-25T08:55:01.721Z,47.95
2023-05-25T08:58:17.734Z,47.71
2023-05-25T09:01:12.575Z,48.01
2023-05-25T09:03:59.976Z,47.51
2023-05-25T09:06:57.243Z,46.69
2023-05-25T09:09:54.283Z,47.13
2023-05-25T09:12:42.448Z,46.42
2023-05-25T09:15:33.352Z,46.03
2023-05-25T09:18:20.700Z,46.05
2023-05-25T09:21:07.945Z,46.62
2023-05-25T09:23:57.370Z,45.80
2023-05-25T09:26:46.380Z,45.40
2023-05-25T09:29:35.606Z,45.48
2023-05-25T09:32:25.507Z,45.36
2023-05-25T09:35:12.950Z,44.83
2023-05-25T09:38:01.911Z,43.89
2023-05-25T09:40:50.734Z,44.23
2023-05-25T09:43:41.767Z,44.02
2023-05-25T09:46:31.279Z,44.47
2023-05-25T09:49:20.441Z,43.33
2023-05-25T09:52:08.055Z,42.45
2023-05-25T09:54:56.391Z,42.56
2023-05-25T09:57:43.609Z,42.53
2023-05-25T10:00:31.976Z,43.26
2023-05-25T10:03:20.361Z,42.37
2023-05-25T10:06:08.428Z,42.88
2023-05-25T10:08:55.897Z,42.06
2023-05-25T10:11:44.635Z,40.46
2023-05-25T10:14:35.530Z,40.77
2023-05-25T10:17:25.269Z,40.63
2023-05-25T10:20:19.786Z,40.05
2023-05-25T10:23:21.217Z,39.52
2023-05-25T10:26:12.876Z,39.63
2023-05-25T10:29:02.751Z,38.08
2023-05-25T10:31:52.048Z,37.97
2023-05-25T10:34:40.203Z,37.00
2023-05-25T10:37:29.035Z,37.08
2023-05-25T10:40:17.723Z,37.34
2023-05-25T10:43:05.749Z,36.61
2023-05-25T10:45:54.525Z,37.21
2023-05-25T10:48:42.756Z,37.42
2023-05-25T10:51:29.943Z,37.58
2023-05-25T10:54:21.321Z,37.44
2023-05-25T10:57:38.056Z,38.11
2023-05-25T11:00:27.315Z,37.61
2023-05-25T11:03:14.562Z,37.40
2023-05-25T11:06:02.015Z,37.87
2023-05-25T11:09:08.711Z,37.41
2023-05-25T11:12:05.182Z,37.27
2023-05-25T11:14:55.723Z,36.56
2023-05-25T11:17:42.784Z,37.08
2023-05-25T11:20:41.806Z,36.98
2023-05-25T11:23:44.380Z,37.13
2023-05-25T11:26:40.762Z,37.00
2023-05-25T11:29:35.847Z,36.97
2023-05-25T11:32:23.564Z,36.46
2023-05-25T11:35:14.582Z,36.95
2023-05-25T11:38:02.610Z,36.64
2023-05-25T11:40:50.536Z,36.61
2023-05-25T11:43:39.330Z,36.62
2023-05-25T11:46:29.938Z,36.19
2023-05-25T11:49:17.264Z,36.01
2023-05-25T11:52:04.340Z,36.80
2023-05-25T11:54:51.563Z,36.73
2023-05-25T11:57:43.202Z,36.39
2023-05-25T12:00:30.936Z,36.42
2023-05-25T12:03:18.304Z,36.03
2023-05-25T12:06:05.642Z,35.94
2023-05-25T12:08:54.122Z,36.24
2023-05-25T12:11:50.314Z,35.73
2023-05-25T12:14:37.667Z,35.00
2023-05-25T12:17:26.535Z,35.43
2023-05-25T12:20:13.751Z,34.25
2023-05-25T12:23:02.322Z,33.49
2023-05-25T12:25:51.125Z,33.93
2023-05-25T12:28:38.816Z,33.05
2023-05-25T12:31:55.068Z,33.43
2023-05-25T12:34:47.850Z,32.73
2023-05-25T12:37:42.219Z,33.03
2023-05-25T12:40:42.312Z,33.04
2023-05-25T12:43:30.562Z,33.16
2023-05-25T12:46:18.084Z,32.73
2023-05-25T12:49:05.321Z,31.68
2023-05-25T12:51:59.699Z,32.29
2023-05-25T12:55:13.653Z,31.78
2023-05-25T12:58:00.970Z,31.34
2023-05-25T13:00:52.407Z,30.93
2023-05-25T13:03:39.714Z,31.29
2023-05-25T13:06:27.034Z,31.09
2023-05-25T13:09:14.308Z,31.76
2023-05-25T13:12:01.232Z,31.79
2023-05-25T13:14:49.462Z,31.72
2023-05-25T13:17:36.732Z,31.43
2023-05-25T13:20:24.239Z,32.03
2023-05-25T13:23:12.849Z,31.83
2023-05-25T13:25:59.905Z,31.92
2023-05-25T13:28:47.222Z,32.84
2023-05-25T13:31:34.354Z,32.52
2023-05-25T13:34:21.575Z,32.82
2023-05-25T13:37:08.715Z,32.68
2023-05-25T13:39:55.814Z,32.84
2023-05-25T13:42:42.872Z,32.61
2023-05-25T13:45:30.515Z,33.51
2023-05-25T13:48:17.734Z,33.37
2023-05-25T13:51:05.242Z,33.45
2023-05-25T13:53:52.728Z,33.58
2023-05-25T13:56:39.825Z,33.20
2023-05-25T13:59:27.684Z,34.02
2023-05-25T14:02:14.727Z,34.18
2023-05-25T14:05:02.090Z,33.87
2023-05-25T14:07:49.182Z,34.22
2023-05-25T14:10:36.531Z,34.23
2023-05-25T14:13:23.550Z,34.54
2023-05-25T14:16:11.092Z,34.85
2023-05-25T14:18:58.088Z,34.81
2023-05-25T14:21:45.521Z,34.59
2023-05-25T14:24:32.815Z,34.87
2023-05-25T14:27:20.328Z,34.68
2023-05-25T14:30:08.816Z,35.00
2023-05-25T14:32:56.380Z,34.77
2023-05-25T14:35:43.766Z,35.05
2023-05-25T14:38:31.244Z,35.28
2023-05-25T14:41:19.000Z,34.99
2023-05-25T14:44:06.207Z,35.35
2023-05-25T14:46:56.503Z,35.47
2023-05-25T14:49:43.679Z,35.54
2023-05-25T14:52:30.911Z,35.88
2023-05-25T14:55:18.023Z,35.89
2023-05-25T14:58:05.314Z,35.50
2023-05-25T15:00:52.458Z,35.66
2023-05-25T15:03:39.998Z,35.68
2023-05-25T15:06:27.378Z,36.07
2023-05-25T15:09:14.626Z,36.02
2023-05-25T15:12:02.739Z,36.23
2023-05-25T15:14:49.848Z,36.42
2023-05-25T15:17:37.073Z,37.11
2023-05-25T15:20:24.472Z,38.38
2023-05-25T15:23:11.538Z,39.90
2023-05-25T15:25:58.555Z,39.99
2023-05-25T15:28:45.837Z,40.92
2023-05-25T15:31:32.885Z,40.80
2023-05-25T15:34:19.912Z,40.64
2023-05-25T15:37:07.102Z,41.12
2023-05-25T15:39:54.128Z,41.28
2023-05-25T15:42:41.300Z,40.70
2023-05-25T15:45:31.738Z,40.22
2023-05-25T15:48:18.851Z,40.41
2023-05-25T15:51:05.998Z,39.61
2023-05-25T15:53:53.106Z,38.68
2023-05-25T15:56:40.318Z,38.22
2023-05-25T15:59:27.543Z,37.60
2023-05-25T16:02:14.655Z,37.68
2023-05-25T16:05:01.903Z,37.44
2023-05-25T16:07:49.136Z,36.29
2023-05-25T16:10:36.515Z,35.16
2023-05-25T16:13:23.577Z,35.23
2023-05-25T16:16:10.714Z,34.11
2023-05-25T16:18:58.208Z,33.08
2023-05-25T16:21:45.305Z,33.69
2023-05-25T16:24:32.254Z,33.03
2023-05-25T16:27:19.794Z,33.67
2023-05-25T16:30:06.988Z,33.98
2023-05-25T16:32:54.187Z,33.12
2023-05-25T16:35:41.423Z,33.64
2023-05-25T16:38:28.623Z,34.45
2023-05-25T16:41:15.757Z,34.44
2023-05-25T16:44:03.028Z,34.84
2023-05-25T16:46:50.148Z,34.80
2023-05-25T16:49:37.140Z,35.54
2023-05-25T16:52:24.415Z,35.99
2023-05-25T16:55:11.358Z,36.44
2023-05-25T16:57:59.289Z,37.22
2023-05-25T17:00:46.243Z,38.31
2023-05-25T17:03:33.726Z,38.69
2023-05-25T17:06:20.816Z,39.00
2023-05-25T17:09:08.060Z,38.74
2023-05-25T17:11:55.236Z,38.24
2023-05-25T17:14:42.475Z,37.78
2023-05-25T17:17:29.534Z,38.55
2023-05-25T17:20:16.925Z,38.09
2023-05-25T17:23:04.066Z,38.05
2023-05-25T17:25:51.289Z,38.30
2023-05-25T17:28:38.368Z,37.73
2023-05-25T17:31:25.675Z,37.36
2023-05-25T17:34:12.770Z,37.22
2023-05-25T17:36:59.867Z,37.46
2023-05-25T17:39:46.906Z,37.29
2023-05-25T17:42:34.044Z,37.39
2023-05-25T17:45:21.251Z,37.41
2023-05-25T17:48:08.562Z,37.19
2023-05-25T17:50:55.727Z,37.57
2023-05-25T17:53:42.926Z,37.35
2023-05-25T17:56:30.212Z,37.46
2023-05-25T17:59:17.313Z,37.52
2023-05-25T18:02:04.491Z,37.67
2023-05-25T18:04:51.604Z,37.19
2023-05-25T18:07:38.761Z,37.55
2023-05-25T18:10:26.131Z,37.22
2023-05-25T18:13:13.285Z,37.28
2023-05-25T18:16:00.359Z,37.32
2023-05-25T18:18:47.342Z,37.47
2023-05-25T18:21:34.486Z,38.03
2023-05-25T18:24:21.666Z,37.97
2023-05-25T18:27:08.860Z,38.55
2023-05-25T18:29:56.071Z,38.59
2023-05-25T18:32:43.100Z,39.08
2023-05-25T18:35:30.121Z,39.23
2023-05-25T18:38:17.251Z,39.71
2023-05-25T18:41:04.236Z,39.32
2023-05-25T18:43:51.383Z,39.64
2023-05-25T18:46:38.497Z,40.13
2023-05-25T18:49:25.754Z,39.70
2023-05-25T18:52:12.774Z,41.03
2023-05-25T18:55:00.260Z,40.67
2023-05-25T18:57:47.396Z,41.02
2023-05-25T19:00:34.926Z,41.47
2023-05-25T19:03:22.098Z,41.86
2023-05-25T19:06:09.214Z,41.83
2023-05-25T19:08:56.399Z,42.73
2023-05-25T19:11:43.448Z,41.98
2023-05-25T19:14:30.497Z,42.21
2023-05-25T19:17:17.717Z,43.00
2023-05-25T19:20:04.824Z,42.52
2023-05-25T19:22:53.599Z,42.67
2023-05-25T19:25:40.737Z,43.05
2023-05-25T19:28:27.811Z,43.73
2023-05-25T19:31:14.839Z,43.46
2023-05-25T19:34:01.932Z,44.24
2023-05-25T19:36:56.409Z,44.14
2023-05-25T19:39:47.560Z,44.93
2023-05-25T19:42:34.894Z,45.45
2023-05-25T19:45:22.039Z,45.48
2023-05-25T19:48:09.169Z,45.01
2023-05-25T19:50:56.230Z,44.99
2023-05-25T19:53:43.289Z,44.92
2023-05-25T19:56:30.546Z,45.10
2023-05-25T19:59:17.709Z,45.30
2023-05-25T20:02:04.839Z,45.43
2023-05-25T20:04:51.925Z,46.28
2023-05-25T20:07:39.043Z,46.36
2023-05-25T20:10:26.464Z,45.44
2023-05-25T20:13:14.277Z,46.69
2023-05-25T20:16:01.343Z,46.70
2023-05-25T20:18:48.473Z,47.05
2023-05-25T20:21:35.842Z,46.06
2023-05-25T20:24:23.045Z,47.16
2023-05-25T20:27:10.084Z,47.22
2023-05-25T20:29:57.236Z,47.30
2023-05-25T20:32:44.473Z,46.56
2023-05-25T20:35:32.621Z,46.57
2023-05-25T20:38:19.809Z,47.04
2023-05-25T20:41:06.774Z,46.59
2023-05-25T20:43:53.908Z,46.77
2023-05-25T20:46:41.242Z,46.85
2023-05-25T20:49:28.456Z,46.74
2023-05-25T20:52:15.731Z,47.13
2023-05-25T20:55:02.880Z,48.29
2023-05-25T20:57:50.095Z,47.39
2023-05-25T21:00:37.580Z,47.38
2023-05-25T21:03:24.797Z,47.68
2023-05-25T21:06:12.008Z,48.02
2023-05-25T21:08:59.097Z,48.49
2023-05-25T21:11:46.362Z,48.78
2023-05-25T21:14:33.424Z,47.84
2023-05-25T21:17:20.479Z,47.72
2023-05-25T21:20:07.547Z,47.82
2023-05-25T21:22:54.739Z,48.95
2023-05-25T21:25:41.927Z,48.44
2023-05-25T21:28:29.075Z,49.48
2023-05-25T21:31:16.271Z,48.79
2023-05-25T21:34:03.334Z,49.17
2023-05-25T21:36:50.456Z,50.06
2023-05-25T21:39:37.756Z,50.34
2023-05-25T21:42:25.137Z,50.19
2023-05-25T21:45:12.321Z,50.29
2023-05-25T21:47:59.303Z,50.73
2023-05-25T21:50:46.415Z,50.40
2023-05-25T21:53:33.468Z,51.14
2023-05-25T21:56:20.673Z,51.08
2023-05-25T21:59:07.840Z,50.85
2023-05-25T22:01:54.986Z,51.39
2023-05-25T22:04:42.138Z,51.38
2023-05-25T22:07:29.226Z,51.43
2023-05-25T22:10:16.268Z,50.93
2023-05-25T22:13:03.303Z,50.80
2023-05-25T22:15:50.702Z,51.73
2023-05-25T22:18:38.651Z,51.19
2023-05-25T22:21:26.018Z,50.91
2023-05-25T22:24:13.274Z,51.53
2023-05-25T22:27:00.551Z,51.11
2023-05-25T22:29:47.587Z,51.39
2023-05-25T22:32:34.849Z,51.42
2023-05-25T22:35:22.583Z,51.66
2023-05-25T22:38:09.651Z,52.73
2023-05-25T22:40:56.696Z,52.29
2023-05-25T22:43:43.787Z,52.61
2023-05-25T22:46:30.971Z,52.67
2023-05-25T22:49:18.213Z,53.09
2023-05-25T22:52:05.495Z,53.70
2023-05-25T22:54:53.072Z,53.12
2023-05-25T22:57:40.332Z,53.91
2023-05-25T23:00:28.166Z,53.58
2023-05-25T23:03:15.527Z,53.50
2023-05-25T23:06:04.187Z,53.78
2023-05-25T23:08:51.162Z,54.34
2023-05-25T23:11:38.760Z,54.45
2023-05-25T23:14:25.944Z,54.17
2023-05-25T23:17:13.049Z,54.59
2023-05-25T23:20:00.143Z,53.88
2023-05-25T23:22:47.485Z,54.34
2023-05-25T23:25:34.557Z,54.37
2023-05-25T23:28:21.881Z,53.84
2023-05-25T23:31:09.246Z,54.23
2023-05-25T23:33:56.626Z,54.40
2023-05-25T23:36:43.716Z,54.02
2023-05-25T23:39:30.857Z,53.89
2023-05-25T23:42:17.824Z,54.28
2023-05-25T23:45:05.156Z,54.48
2023-05-25T23:47:52.176Z,54.27
2023-05-25T23:50:39.331Z,54.57
2023-05-25T23:53:26.216Z,54.14
2023-05-25T23:56:13.574Z,54.37
2023-05-25T23:59:00.628Z,54.04
